Time;durP1;ratioP1;P1;durP2;ratioP2;P2;SDS_P1;SDS_P2;PMS_P1;PMS_P2;Temp;Humidity;BMP_temperature;BMP_pressure;BME280_temperature;BME280_humidity;BME280_pressure;Samples;Min_cycle;Max_cycle;Signal;HPM_P1;HPM_P2
2023/03/18 00:00:19;;;;;;;6.67;4.40;;;10.50;89.80;;;;;;5079046;28;20457;-65
2023/03/18 00:02:48;;;;;;;8.67;4.53;;;10.50;37.40;;;;;;5078674;28;20750;-65
2023/03/18 00:05:17;;;;;;;7.00;4.70;;;10.50;26.20;;;;;;5078402;28;20500;-64
2023/03/18 00:07:44;;;;;;;7.77;5.27;;;10.50;24.70;;;;;;5077418;28;20462;-65
2023/03/18 00:10:12;;;;;;;11.33;5.20;;;10.50;18.00;;;;;;5077167;28;20453;-65
2023/03/18 00:12:41;;;;;;;6.40;4.33;;;10.50;14.20;;;;;;5076755;28;20760;-65
2023/03/18 00:15:10;;;;;;;6.77;5.30;;;10.50;5.80;;;;;;5076785;28;20461;-64
2023/03/18 00:17:41;;;;;;;13.30;4.70;;;10.50;20.00;;;;;;5076918;28;20479;-64
2023/03/18 00:20:11;;;;;;;8.07;4.57;;;10.50;23.40;;;;;;5057914;28;20924;-64
2023/03/18 00:22:42;;;;;;;6.60;5.00;;;10.50;4.80;;;;;;5057535;28;20779;-65
2023/03/18 00:25:15;;;;;;;9.30;4.10;;;10.50;1.00;;;;;;5067172;28;20485;-65
2023/03/18 00:27:42;;;;;;;13.90;4.87;;;10.50;1.00;;;;;;5078421;28;20898;-64
2023/03/18 00:30:11;;;;;;;14.33;5.37;;;10.50;12.60;;;;;;5077536;28;20484;-64
2023/03/18 00:32:40;;;;;;;7.97;5.20;;;10.60;1.00;;;;;;5078143;28;20436;-64
2023/03/18 00:35:09;;;;;;;6.80;4.60;;;10.50;1.00;;;;;;5076988;28;20461;-64
2023/03/18 00:37:37;;;;;;;6.90;4.00;;;10.50;1.00;;;;;;5077493;28;20457;-65
2023/03/18 00:40:09;;;;;;;9.00;5.63;;;10.60;1.00;;;;;;5077100;28;20465;-64
2023/03/18 00:42:38;;;;;;;7.63;4.57;;;10.60;1.00;;;;;;5077062;28;20465;-64
2023/03/18 00:45:09;;;;;;;6.43;4.93;;;10.60;1.00;;;;;;5077945;28;20489;-65
2023/03/18 00:47:37;;;;;;;10.47;5.37;;;10.60;1.00;;;;;;5077978;28;20469;-64
2023/03/18 00:50:06;;;;;;;7.27;4.60;;;10.60;1.00;;;;;;5076839;28;20468;-64
2023/03/18 00:52:33;;;;;;;8.60;5.40;;;10.70;1.00;;;;;;5077205;28;20465;-64
2023/03/18 00:55:00;;;;;;;10.30;4.43;;;10.60;1.00;;;;;;5077565;28;20457;-64
2023/03/18 00:57:29;;;;;;;8.47;4.10;;;10.70;1.00;;;;;;5077802;28;20464;-63
2023/03/18 00:59:58;;;;;;;4.60;3.80;;;10.70;1.00;;;;;;5077183;28;20468;-64
2023/03/18 01:02:26;;;;;;;6.80;4.90;;;10.60;1.00;;;;;;5077988;28;20515;-63
2023/03/18 01:04:53;;;;;;;10.80;5.70;;;10.60;1.00;;;;;;5077022;28;21020;-64
2023/03/18 01:07:20;;;;;;;5.63;4.37;;;10.60;1.00;;;;;;5077459;28;20468;-64
2023/03/18 01:09:47;;;;;;;11.07;4.87;;;10.60;1.00;;;;;;5077680;28;20466;-64
2023/03/18 01:12:15;;;;;;;6.23;5.07;;;10.60;1.00;;;;;;5076823;28;20522;-64
2023/03/18 01:14:44;;;;;;;8.33;4.27;;;10.60;1.00;;;;;;5076903;28;20453;-64
2023/03/18 01:17:11;;;;;;;11.00;5.00;;;10.60;1.00;;;;;;5077387;28;20957;-64
2023/03/18 01:19:38;;;;;;;7.63;4.67;;;10.60;3.70;;;;;;5077572;28;20456;-64
2023/03/18 01:22:06;;;;;;;9.03;5.57;;;10.60;1.00;;;;;;5077072;28;20458;-64
2023/03/18 01:24:34;;;;;;;5.83;4.50;;;10.60;3.80;;;;;;5076952;28;20511;-63
2023/03/18 01:27:02;;;;;;;7.83;4.80;;;10.60;6.80;;;;;;5076613;28;20518;-63
2023/03/18 01:29:29;;;;;;;10.60;5.13;;;10.70;6.10;;;;;;5077210;28;20472;-63
2023/03/18 01:31:59;;;;;;;8.37;5.60;;;10.70;10.90;;;;;;5076748;28;20465;-64
2023/03/18 01:34:26;;;;;;;5.87;4.60;;;10.70;30.30;;;;;;5076807;28;20465;-63
2023/03/18 01:36:53;;;;;;;7.53;5.60;;;10.70;35.60;;;;;;5076479;28;20461;-63
2023/03/18 01:39:20;;;;;;;7.27;4.87;;;10.70;33.90;;;;;;5077218;28;20461;-64
2023/03/18 01:41:47;;;;;;;6.77;5.13;;;10.70;51.10;;;;;;5075549;28;20461;-64
2023/03/18 01:44:16;;;;;;;12.30;5.50;;;10.70;57.80;;;;;;5076817;28;20466;-64
2023/03/18 01:46:44;;;;;;;8.70;6.07;;;10.70;64.20;;;;;;5076511;28;20956;-64
2023/03/18 01:49:16;;;;;;;9.63;5.03;;;10.80;63.70;;;;;;5076516;28;20461;-64
2023/03/18 01:51:48;;;;;;;6.23;4.50;;;10.80;85.80;;;;;;5076709;28;20466;-65
2023/03/18 01:54:17;;;;;;;7.77;4.90;;;10.80;91.00;;;;;;5077253;28;20489;-65
2023/03/18 01:56:49;;;;;;;6.23;5.13;;;10.80;86.50;;;;;;5075949;28;20764;-66
2023/03/18 01:59:16;;;;;;;11.50;5.33;;;10.90;81.60;;;;;;5076974;28;20901;-65
2023/03/18 02:01:48;;;;;;;9.90;5.30;;;10.90;83.70;;;;;;5076856;28;20466;-66
2023/03/18 02:04:23;;;;;;;9.63;5.10;;;10.80;88.90;;;;;;5077077;28;20461;-66
2023/03/18 02:06:50;;;;;;;6.20;5.00;;;10.80;99.90;;;;;;5075766;28;20489;-67
2023/03/18 02:09:18;;;;;;;8.60;5.53;;;10.80;99.90;;;;;;5076593;28;20464;-66
2023/03/18 02:11:48;;;;;;;6.93;5.87;;;10.80;99.90;;;;;;5077017;28;20953;-65
2023/03/18 02:14:18;;;;;;;5.57;4.97;;;10.80;99.90;;;;;;5076747;28;20472;-66
2023/03/18 02:16:49;;;;;;;6.97;5.40;;;10.80;99.90;;;;;;5075852;28;20464;-66
2023/03/18 02:19:36;;;;;;;8.13;5.57;;;10.80;99.90;;;;;;5076533;28;21514;-66
2023/03/18 02:22:12;;;;;;;10.30;6.43;;;10.80;99.90;;;;;;5077183;28;20463;-66
2023/03/18 02:24:50;;;;;;;7.70;6.70;;;10.80;99.90;;;;;;5076692;28;20461;-66
2023/03/18 02:27:20;;;;;;;7.13;5.80;;;10.80;99.90;;;;;;5075751;28;20453;-67
2023/03/18 02:29:49;;;;;;;12.87;6.47;;;10.70;99.90;;;;;;5076923;28;20461;-65
2023/03/18 02:32:17;;;;;;;7.33;5.10;;;10.70;99.90;;;;;;5076474;28;20446;-65
2023/03/18 02:34:45;;;;;;;7.03;5.87;;;10.70;99.90;;;;;;5076482;28;20472;-66
2023/03/18 02:37:12;;;;;;;6.10;5.50;;;10.70;99.90;;;;;;5076410;28;20901;-66
2023/03/18 02:39:39;;;;;;;6.90;6.00;;;10.70;99.90;;;;;;5076644;28;20904;-65
2023/03/18 02:42:07;;;;;;;7.03;5.70;;;10.60;99.90;;;;;;5076088;28;20864;-67
2023/03/18 02:44:40;;;;;;;8.00;6.20;;;10.50;99.90;;;;;;5076540;28;20775;-65
2023/03/18 02:47:12;;;;;;;9.77;6.07;;;10.60;99.90;;;;;;5076153;28;20496;-65
2023/03/18 02:49:40;;;;;;;13.03;6.90;;;10.60;99.90;;;;;;5075075;28;20475;-65
2023/03/18 02:52:07;;;;;;;7.60;6.03;;;10.50;99.90;;;;;;5076100;28;20458;-65
2023/03/18 02:54:34;;;;;;;8.80;5.87;;;10.50;99.90;;;;;;5079674;28;20893;-65
2023/03/18 02:57:01;;;;;;;9.03;6.17;;;10.40;99.90;;;;;;5079482;28;20453;-65
2023/03/18 02:59:31;;;;;;;8.70;6.07;;;10.40;99.90;;;;;;5080300;28;20467;-65
2023/03/18 03:02:00;;;;;;;8.40;6.60;;;10.40;99.90;;;;;;5079775;28;20465;-64
2023/03/18 03:04:27;;;;;;;8.60;5.93;;;10.40;99.90;;;;;;5079688;28;20575;-65
2023/03/18 03:06:56;;;;;;;9.53;6.03;;;10.40;99.90;;;;;;5079798;28;20492;-64
2023/03/18 03:09:23;;;;;;;7.10;6.03;;;10.40;99.90;;;;;;5079631;28;20461;-64
2023/03/18 03:11:51;;;;;;;10.47;6.30;;;10.40;99.90;;;;;;5080024;28;20987;-65
2023/03/18 03:14:18;;;;;;;8.33;6.10;;;10.40;99.90;;;;;;5079746;28;20468;-64
2023/03/18 03:16:45;;;;;;;9.57;6.67;;;10.40;99.90;;;;;;5079648;28;20759;-65
2023/03/18 03:19:14;;;;;;;11.50;6.90;;;10.40;99.90;;;;;;5078818;28;20507;-64
2023/03/18 03:21:41;;;;;;;9.57;5.63;;;10.40;99.90;;;;;;5079680;28;20468;-64
2023/03/18 03:24:09;;;;;;;10.00;6.60;;;10.30;99.90;;;;;;5079566;28;20461;-64
2023/03/18 03:26:36;;;;;;;13.60;6.53;;;10.30;99.90;;;;;;5079407;28;20493;-65
2023/03/18 03:29:05;;;;;;;11.57;6.50;;;10.20;99.90;;;;;;5078619;28;20457;-64
2023/03/18 03:31:32;;;;;;;10.30;7.53;;;10.20;1.00;;;;;;5079010;28;20472;-64
2023/03/18 03:34:00;;;;;;;10.97;6.73;;;10.20;1.00;;;;;;5079803;28;20873;-64
2023/03/18 03:36:28;;;;;;;8.17;6.30;;;10.20;1.00;;;;;;5079230;28;20761;-65
2023/03/18 03:38:56;;;;;;;10.43;7.30;;;10.10;1.00;;;;;;5078541;28;20458;-65
2023/03/18 03:41:23;;;;;;;8.87;7.17;;;10.10;1.00;;;;;;5079384;28;20754;-66
2023/03/18 03:43:50;;;;;;;13.30;6.97;;;10.00;1.00;;;;;;5079251;28;20476;-65
2023/03/18 03:46:17;;;;;;;10.53;8.27;;;10.00;1.00;;;;;;5079300;28;20489;-64
2023/03/18 03:48:44;;;;;;;9.07;7.63;;;10.00;1.00;;;;;;5078460;28;20468;-65
2023/03/18 03:51:11;;;;;;;12.90;7.87;;;10.00;41.70;;;;;;5078425;28;20468;-64
2023/03/18 03:53:39;;;;;;;9.63;8.63;;;10.00;80.00;;;;;;5079013;28;20924;-64
2023/03/18 03:56:08;;;;;;;11.43;7.07;;;9.90;7.20;;;;;;5079115;28;20457;-64
2023/03/18 03:58:35;;;;;;;10.77;8.23;;;9.90;87.40;;;;;;5078964;28;20489;-64
2023/03/18 04:01:03;;;;;;;12.00;8.40;;;9.90;99.90;;;;;;5077926;28;20468;-64
2023/03/18 04:03:31;;;;;;;10.10;8.20;;;9.90;99.90;;;;;;5078487;28;20576;-64
2023/03/18 04:05:58;;;;;;;10.67;7.80;;;9.90;99.90;;;;;;5078004;28;20481;-65
2023/03/18 04:08:25;;;;;;;8.40;7.40;;;9.90;99.90;;;;;;5078530;28;20779;-64
2023/03/18 04:10:53;;;;;;;9.80;8.03;;;9.80;99.90;;;;;;5078134;28;20877;-65
2023/03/18 04:13:20;;;;;;;11.70;8.53;;;9.80;99.90;;;;;;5078566;28;20461;-64
2023/03/18 04:15:47;;;;;;;14.37;9.10;;;9.80;1.00;;;;;;5078453;28;20457;-64
2023/03/18 04:18:15;;;;;;;12.17;8.43;;;9.80;1.00;;;;;;5078542;28;20496;-64
2023/03/18 04:20:43;;;;;;;14.90;8.67;;;9.80;1.00;;;;;;5077493;28;20572;-65
2023/03/18 04:23:10;;;;;;;10.30;7.17;;;9.80;1.00;;;;;;5078489;28;20461;-64
2023/03/18 04:25:37;;;;;;;12.40;8.87;;;9.80;63.80;;;;;;5078073;28;20469;-64
2023/03/18 04:28:06;;;;;;;14.40;8.00;;;9.70;99.90;;;;;;5078371;28;20468;-64
2023/03/18 04:30:33;;;;;;;9.40;8.30;;;9.80;99.90;;;;;;5078524;28;20468;-64
2023/03/18 04:33:02;;;;;;;10.73;8.60;;;9.80;99.90;;;;;;5077585;28;20574;-64
2023/03/18 04:35:29;;;;;;;10.73;8.77;;;9.80;99.90;;;;;;5058327;28;20569;-64
2023/03/18 04:37:56;;;;;;;12.30;8.97;;;9.80;99.90;;;;;;5058349;28;20462;-64
2023/03/18 04:40:23;;;;;;;14.53;9.40;;;9.80;99.90;;;;;;5057572;28;20470;-64
2023/03/18 04:42:51;;;;;;;11.87;9.23;;;9.90;1.00;;;;;;5068908;28;20887;-64
2023/03/18 04:45:19;;;;;;;12.33;8.17;;;9.90;99.90;;;;;;5077523;28;20518;-64
2023/03/18 04:47:46;;;;;;;11.93;8.53;;;9.90;99.90;;;;;;5077876;28;21015;-64
2023/03/18 04:50:15;;;;;;;15.00;8.17;;;9.90;44.60;;;;;;5077736;28;20462;-64
2023/03/18 04:52:43;;;;;;;10.40;8.23;;;9.90;1.00;;;;;;5076921;28;20898;-64
2023/03/18 04:55:12;;;;;;;12.13;9.17;;;10.00;1.00;;;;;;5077878;28;20485;-64
2023/03/18 04:57:41;;;;;;;13.60;9.90;;;10.00;99.90;;;;;;5077876;28;20461;-64
2023/03/18 05:00:10;;;;;;;11.40;8.70;;;10.00;99.90;;;;;;5077808;28;20856;-64
2023/03/18 05:02:40;;;;;;;10.03;8.43;;;10.00;99.90;;;;;;5077060;28;20509;-64
2023/03/18 05:05:07;;;;;;;15.30;8.60;;;10.00;99.90;;;;;;5077899;28;20461;-64
2023/03/18 05:07:34;;;;;;;14.87;9.47;;;10.10;31.50;;;;;;5077428;28;20558;-64
2023/03/18 05:10:01;;;;;;;12.90;8.37;;;10.10;1.00;;;;;;5077670;28;20468;-64
2023/03/18 05:12:29;;;;;;;11.47;8.30;;;10.10;1.00;;;;;;5077348;28;20461;-64
2023/03/18 05:14:56;;;;;;;12.43;8.63;;;10.10;1.00;;;;;;5076379;28;20465;-64
2023/03/18 05:17:23;;;;;;;12.00;8.47;;;10.10;1.00;;;;;;5076310;28;20457;-64
2023/03/18 05:19:51;;;;;;;11.17;8.40;;;10.10;1.00;;;;;;5077424;28;20925;-64
2023/03/18 05:22:20;;;;;;;10.90;7.70;;;10.10;1.00;;;;;;5077647;28;20457;-64
2023/03/18 05:24:48;;;;;;;10.10;7.73;;;10.10;1.00;;;;;;5076464;28;20465;-64
2023/03/18 05:27:17;;;;;;;15.03;7.97;;;10.00;1.00;;;;;;5077263;28;20994;-64
2023/03/18 05:29:44;;;;;;;16.77;8.80;;;10.00;1.00;;;;;;5077361;28;20491;-64
2023/03/18 05:32:13;;;;;;;11.23;8.83;;;10.10;1.00;;;;;;5077110;28;20472;-64
2023/03/18 05:34:41;;;;;;;10.73;8.43;;;10.10;1.00;;;;;;5076779;28;20465;-64
2023/03/18 05:37:12;;;;;;;12.43;8.60;;;10.20;99.90;;;;;;5077007;28;20456;-64
2023/03/18 05:39:39;;;;;;;12.17;8.83;;;10.30;99.90;;;;;;5077275;28;20462;-64
2023/03/18 05:42:07;;;;;;;10.80;8.67;;;10.30;99.90;;;;;;5076740;28;20461;-64
2023/03/18 05:44:35;;;;;;;11.13;7.93;;;10.30;91.70;;;;;;5076697;28;20457;-64
2023/03/18 05:47:02;;;;;;;11.63;8.27;;;10.30;57.90;;;;;;5077157;28;20488;-63
2023/03/18 05:49:30;;;;;;;9.73;7.70;;;10.30;7.10;;;;;;5077032;28;20435;-64
2023/03/18 05:51:57;;;;;;;11.10;8.17;;;10.40;1.00;;;;;;5076604;28;20468;-63
2023/03/18 05:54:25;;;;;;;9.90;7.43;;;10.40;1.00;;;;;;5076520;28;20476;-64
2023/03/18 05:56:53;;;;;;;11.43;7.90;;;10.40;1.00;;;;;;5076724;28;20461;-63
2023/03/18 05:59:22;;;;;;;10.20;7.93;;;10.40;1.00;;;;;;5077109;28;20469;-63
2023/03/18 06:01:50;;;;;;;11.33;6.73;;;10.40;1.00;;;;;;5077109;28;20469;-63
2023/03/18 06:04:18;;;;;;;10.67;7.23;;;10.40;1.00;;;;;;5077128;28;20754;-63
2023/03/18 06:06:47;;;;;;;11.47;7.30;;;10.40;1.00;;;;;;5076844;28;20796;-63
2023/03/18 06:09:15;;;;;;;12.10;7.83;;;10.40;1.00;;;;;;5076747;28;20809;-63
2023/03/18 06:11:44;;;;;;;10.37;6.97;;;10.40;1.00;;;;;;5077179;28;20985;-63
2023/03/18 06:14:11;;;;;;;9.67;7.47;;;10.40;1.00;;;;;;5077021;28;20467;-63
2023/03/18 06:16:39;;;;;;;9.60;7.57;;;10.40;1.00;;;;;;5076740;28;20567;-63
2023/03/18 06:19:06;;;;;;;7.07;6.00;;;10.50;1.00;;;;;;5075795;28;20489;-64
2023/03/18 06:21:33;;;;;;;9.47;7.00;;;10.50;1.00;;;;;;5076034;28;20497;-63
2023/03/18 06:24:01;;;;;;;9.13;6.97;;;10.50;1.00;;;;;;5076540;28;20457;-63
2023/03/18 06:26:28;;;;;;;8.97;6.80;;;10.50;1.00;;;;;;5076795;28;20591;-62
2023/03/18 06:28:57;;;;;;;8.63;6.73;;;10.50;1.00;;;;;;5079716;28;20468;-62
2023/03/18 06:31:25;;;;;;;7.40;6.60;;;10.60;1.00;;;;;;5080570;28;20461;-62
2023/03/18 06:33:52;;;;;;;10.43;7.07;;;10.60;1.00;;;;;;5080362;28;20460;-63
2023/03/18 06:36:20;;;;;;;8.17;6.97;;;10.60;1.00;;;;;;5080294;28;20465;-60
2023/03/18 06:38:47;;;;;;;11.10;8.30;;;10.60;1.00;;;;;;5077064;28;20461;-61
2023/03/18 06:41:15;;;;;;;7.63;6.83;;;10.60;1.00;;;;;;5077934;28;20457;-61
2023/03/18 06:43:42;;;;;;;8.03;7.23;;;10.60;1.00;;;;;;5078771;28;20503;-62
2023/03/18 06:46:10;;;;;;;11.27;7.40;;;10.60;1.00;;;;;;5078898;28;20457;-62
2023/03/18 06:48:39;;;;;;;11.07;6.67;;;10.60;1.00;;;;;;5077869;28;20461;-61
2023/03/18 06:51:06;;;;;;;9.97;6.73;;;10.70;1.00;;;;;;5078752;28;20453;-61
2023/03/18 06:53:35;;;;;;;7.73;6.93;;;10.70;1.00;;;;;;5078342;28;20457;-61
2023/03/18 06:56:02;;;;;;;8.10;6.43;;;10.70;1.00;;;;;;5078658;28;20551;-60
2023/03/18 06:58:29;;;;;;;14.93;7.53;;;10.70;1.00;;;;;;5077868;28;20449;-61
2023/03/18 07:00:56;;;;;;;7.03;6.33;;;10.70;1.00;;;;;;5076722;28;20465;-61
2023/03/18 07:03:25;;;;;;;10.87;7.37;;;10.80;1.00;;;;;;5076668;28;20767;-61
2023/03/18 07:05:53;;;;;;;10.43;7.00;;;10.70;1.00;;;;;;5076405;28;20467;-59
2023/03/18 07:08:20;;;;;;;7.17;6.47;;;10.80;1.00;;;;;;5076537;28;20485;-61
2023/03/18 07:10:47;;;;;;;9.77;5.93;;;10.80;1.00;;;;;;5076432;28;20457;-61
2023/03/18 07:13:14;;;;;;;9.07;6.87;;;10.90;1.00;;;;;;5073793;28;20461;-61
2023/03/18 07:15:42;;;;;;;7.50;6.70;;;10.90;1.00;;;;;;5072751;28;20476;-59
2023/03/18 07:18:09;;;;;;;6.53;5.93;;;11.00;1.00;;;;;;5076187;28;20732;-61
2023/03/18 07:20:38;;;;;;;7.50;6.27;;;11.00;1.00;;;;;;5076460;28;20432;-61
2023/03/18 07:23:05;;;;;;;8.20;6.63;;;11.00;1.00;;;;;;5076946;28;20461;-60
2023/03/18 07:25:32;;;;;;;7.80;6.97;;;11.00;1.00;;;;;;5076651;28;20473;-60
2023/03/18 07:28:00;;;;;;;8.40;6.33;;;11.00;1.00;;;;;;5075043;28;20937;-61
2023/03/18 07:30:27;;;;;;;11.23;6.67;;;11.10;1.00;;;;;;5076651;28;20461;-61
2023/03/18 07:32:55;;;;;;;8.10;6.63;;;11.10;1.00;;;;;;5077675;28;20458;-60
2023/03/18 07:35:22;;;;;;;7.10;6.40;;;11.20;1.00;;;;;;5076895;28;20991;-59
2023/03/18 07:37:51;;;;;;;9.60;6.97;;;11.20;1.00;;;;;;5077285;28;20934;-59
2023/03/18 07:40:18;;;;;;;7.37;6.20;;;11.10;1.00;;;;;;5077846;28;20515;-60
2023/03/18 07:42:45;;;;;;;8.90;6.50;;;11.10;1.00;;;;;;5077650;28;20469;-59
2023/03/18 07:45:12;;;;;;;8.47;7.10;;;11.20;1.00;;;;;;5076961;28;20461;-59
2023/03/18 07:47:40;;;;;;;7.23;6.50;;;11.20;1.00;;;;;;5076857;28;20484;-60
2023/03/18 07:50:08;;;;;;;9.17;7.13;;;11.20;1.00;;;;;;5076780;28;20493;-59
2023/03/18 07:52:36;;;;;;;7.90;6.50;;;11.30;1.00;;;;;;5077500;28;20458;-58
2023/03/18 07:55:05;;;;;;;6.93;5.60;;;11.40;1.00;;;;;;5078296;28;20519;-58
2023/03/18 07:57:32;;;;;;;8.93;6.10;;;11.50;1.00;;;;;;5077474;28;20457;-57
2023/03/18 07:59:59;;;;;;;8.13;5.93;;;11.50;1.00;;;;;;5078886;28;20458;-59
2023/03/18 08:02:27;;;;;;;8.10;6.43;;;11.60;1.00;;;;;;5078042;28;20465;-57
2023/03/18 08:04:55;;;;;;;8.90;6.57;;;11.70;1.00;;;;;;5076409;28;20560;-57
2023/03/18 08:07:23;;;;;;;11.40;5.70;;;11.80;1.00;;;;;;5076393;28;20547;-59
2023/03/18 08:09:50;;;;;;;6.67;5.43;;;11.90;1.00;;;;;;5077892;28;20466;-59
2023/03/18 08:12:19;;;;;;;11.63;6.87;;;11.90;1.00;;;;;;5078171;28;20951;-59
2023/03/18 08:14:47;;;;;;;7.60;6.90;;;12.10;1.00;;;;;;5077144;28;20458;-57
2023/03/18 08:17:14;;;;;;;8.30;6.20;;;12.10;1.00;;;;;;5077033;28;20461;-58
2023/03/18 08:19:41;;;;;;;7.47;6.27;;;12.20;1.00;;;;;;5075535;28;20481;-59
2023/03/18 08:22:09;;;;;;;9.17;5.83;;;12.20;1.00;;;;;;5075234;28;20465;-60
2023/03/18 08:24:37;;;;;;;7.30;5.20;;;12.20;1.00;;;;;;5057207;28;20535;-60
2023/03/18 08:27:05;;;;;;;7.50;5.57;;;12.30;99.90;;;;;;5053330;28;20584;-58
2023/03/18 08:29:33;;;;;;;10.93;6.33;;;12.30;99.90;;;;;;5053807;28;20462;-58
2023/03/18 08:32:00;;;;;;;8.50;5.77;;;12.40;99.90;;;;;;5059162;28;20757;-57
2023/03/18 08:34:28;;;;;;;7.27;5.43;;;12.40;99.90;;;;;;5058819;28;20513;-54
2023/03/18 08:36:55;;;;;;;7.63;5.30;;;12.70;99.90;;;;;;5074063;28;20472;-55
2023/03/18 08:39:22;;;;;;;6.10;4.80;;;12.60;99.90;;;;;;5074638;28;20465;-59
2023/03/18 08:41:49;;;;;;;10.93;5.33;;;12.70;99.90;;;;;;5075059;28;20507;-58
2023/03/18 08:44:16;;;;;;;8.13;5.30;;;12.80;99.90;;;;;;5075700;28;20472;-60
2023/03/18 08:46:45;;;;;;;5.17;4.63;;;12.80;99.90;;;;;;5075512;28;20461;-57
2023/03/18 08:49:12;;;;;;;5.50;4.90;;;12.90;99.90;;;;;;5075816;28;20904;-58
2023/03/18 08:51:40;;;;;;;10.40;5.10;;;12.90;99.90;;;;;;5074116;28;20446;-59
2023/03/18 08:54:08;;;;;;;8.40;5.57;;;13.10;99.90;;;;;;5076089;28;20461;-60
2023/03/18 08:56:35;;;;;;;6.23;5.50;;;13.20;99.90;;;;;;5076196;28;20507;-57
2023/03/18 08:59:02;;;;;;;6.87;5.07;;;13.10;99.90;;;;;;5076027;28;20464;-59
2023/03/18 09:01:29;;;;;;;6.30;5.70;;;13.00;99.90;;;;;;5075442;28;20461;-55
2023/03/18 09:03:58;;;;;;;6.83;5.30;;;13.00;99.90;;;;;;5076160;28;20462;-60
2023/03/18 09:06:25;;;;;;;6.07;5.30;;;13.10;99.90;;;;;;5075334;28;20460;-58
2023/03/18 09:08:52;;;;;;;9.33;5.70;;;13.40;99.90;;;;;;5073733;28;20866;-59
2023/03/18 09:11:20;;;;;;;7.03;5.10;;;14.20;99.90;;;;;;5074914;28;20477;-59
2023/03/18 09:13:47;;;;;;;11.13;8.80;;;14.30;99.90;;;;;;5075363;28;20461;-58
2023/03/18 09:16:14;;;;;;;6.80;6.10;;;14.30;99.90;;;;;;5076030;28;20461;-51
2023/03/18 09:18:41;;;;;;;7.10;5.13;;;14.40;99.90;;;;;;5075398;28;20492;-59
2023/03/18 09:21:09;;;;;;;8.40;5.20;;;14.20;99.90;;;;;;5075126;28;20456;-56
2023/03/18 09:23:36;;;;;;;6.83;5.67;;;14.20;99.90;;;;;;5075465;28;20460;-59
2023/03/18 09:26:04;;;;;;;5.50;5.00;;;14.00;99.90;;;;;;5076109;28;21153;-60
2023/03/18 09:28:31;;;;;;;12.80;6.00;;;14.00;99.90;;;;;;5075612;28;20489;-59
2023/03/18 09:30:58;;;;;;;6.87;5.43;;;14.20;99.90;;;;;;5076240;28;20465;-59
2023/03/18 09:33:25;;;;;;;6.70;5.97;;;14.90;99.90;;;;;;5075656;28;20475;-60
2023/03/18 09:35:52;;;;;;;5.07;4.50;;;15.50;99.90;;;;;;5075788;28;20567;-60
2023/03/18 09:38:21;;;;;;;6.80;4.73;;;15.80;99.90;;;;;;5074569;28;20769;-58
2023/03/18 09:41:02;;;;;;;5.53;4.10;;;16.10;99.90;;;;;;5075821;28;20457;-56
2023/03/18 09:43:45;;;;;;;7.20;5.17;;;16.50;99.90;;;;;;5072432;28;20457;-57
2023/03/18 09:46:23;;;;;;;5.40;4.90;;;16.70;99.90;;;;;;5074189;28;20782;-60
2023/03/18 09:49:16;;;;;;;6.07;4.27;;;16.70;99.90;;;;;;5074252;28;20492;-60
2023/03/18 09:51:56;;;;;;;6.50;5.33;;;16.60;99.90;;;;;;5065435;28;20556;-55
2023/03/18 09:54:33;;;;;;;5.10;4.47;;;16.90;99.90;;;;;;5074382;28;20457;-59
2023/03/18 09:57:02;;;;;;;5.20;4.43;;;17.10;99.90;;;;;;5074507;28;20497;-60
2023/03/18 09:59:38;;;;;;;4.53;4.13;;;17.30;99.90;;;;;;5074748;28;20464;-58
2023/03/18 10:02:14;;;;;;;4.53;4.13;;;17.40;99.90;;;;;;5075124;28;20463;-59
2023/03/18 10:04:47;;;;;;;4.80;4.13;;;17.40;99.90;;;;;;5077665;28;20460;-55
2023/03/18 10:07:18;;;;;;;5.73;3.73;;;17.50;99.90;;;;;;5078828;28;20461;-57
2023/03/18 10:09:50;;;;;;;4.60;4.07;;;17.70;99.90;;;;;;5078925;28;20465;-59
2023/03/18 10:12:24;;;;;;;4.97;3.60;;;17.50;99.90;;;;;;5079667;28;20465;-57
2023/03/18 10:15:04;;;;;;;4.13;3.70;;;17.60;99.90;;;;;;5078707;28;20497;-60
2023/03/18 10:17:37;;;;;;;6.23;3.60;;;17.80;99.90;;;;;;5079001;28;20468;-59
2023/03/18 10:20:16;;;;;;;4.70;3.77;;;18.00;99.90;;;;;;5079151;28;20921;-58
2023/03/18 10:23:00;;;;;;;4.90;3.90;;;17.80;99.90;;;;;;5078774;28;20457;-55
2023/03/18 10:25:36;;;;;;;4.20;3.80;;;17.80;99.90;;;;;;5076777;28;20916;-52
2023/03/18 10:28:31;;;;;;;7.17;3.63;;;17.70;99.90;;;;;;5077170;28;20495;-56
2023/03/18 10:31:07;;;;;;;3.87;3.50;;;18.00;99.90;;;;;;5063515;28;20473;-57
2023/03/18 10:33:43;;;;;;;5.97;3.67;;;18.10;99.90;;;;;;5077256;28;20552;-57
2023/03/18 10:36:15;;;;;;;4.27;3.07;;;18.40;99.90;;;;;;5078334;28;20460;-55
2023/03/18 10:38:45;;;;;;;4.23;3.10;;;18.40;99.90;;;;;;5077351;28;20467;-57
2023/03/18 10:41:20;;;;;;;7.63;3.90;;;18.80;99.90;;;;;;5079290;28;20738;-59
2023/03/18 10:43:48;;;;;;;6.13;3.80;;;18.90;99.90;;;;;;5079023;28;20461;-58
2023/03/18 10:46:18;;;;;;;7.10;4.20;;;18.90;99.90;;;;;;5079345;28;20461;-56
2023/03/18 10:48:48;;;;;;;3.53;3.17;;;19.20;99.90;;;;;;5078092;28;21032;-56
2023/03/18 10:51:20;;;;;;;7.33;3.40;;;19.50;99.90;;;;;;5077787;28;20465;-58
2023/03/18 10:53:55;;;;;;;3.90;2.90;;;19.80;99.90;;;;;;5076933;28;20468;-58
2023/03/18 10:56:24;;;;;;;3.70;3.03;;;19.90;99.90;;;;;;5077668;28;20464;-54
2023/03/18 10:58:52;;;;;;;3.40;3.10;;;20.00;99.90;;;;;;5077945;28;20492;-59
2023/03/18 11:01:23;;;;;;;3.43;3.07;;;20.30;99.90;;;;;;5078212;28;20476;-59
2023/03/18 11:03:54;;;;;;;6.70;3.43;;;20.50;99.90;;;;;;5078844;28;20745;-58
2023/03/18 11:06:27;;;;;;;4.87;3.10;;;20.30;99.90;;;;;;5064337;28;20491;-60
2023/03/18 11:09:03;;;;;;;3.77;3.43;;;19.80;99.90;;;;;;5078720;28;20493;-57
2023/03/18 11:11:33;;;;;;;3.50;3.20;;;19.50;99.90;;;;;;5079050;28;20460;-58
2023/03/18 11:14:02;;;;;;;4.50;3.07;;;20.00;99.90;;;;;;5078955;28;20505;-59
2023/03/18 11:16:36;;;;;;;4.00;3.60;;;20.50;99.90;;;;;;5078758;28;20453;-57
2023/03/18 11:19:30;;;;;;;3.90;3.53;;;20.40;99.90;;;;;;5071980;28;20812;-58
2023/03/18 11:22:05;;;;;;;3.93;3.53;;;20.50;99.90;;;;;;5074363;28;20568;-56
2023/03/18 11:24:41;;;;;;;3.73;3.43;;;20.50;99.90;;;;;;5076436;28;20481;-58
2023/03/18 11:30:12;;;;;;;4.30;3.40;;;20.40;99.90;;;;;;5091790;27;20542;-56
2023/03/18 11:32:51;;;;;;;3.43;3.13;;;20.10;99.90;;;;;;5092468;28;20480;-53
2023/03/18 11:35:21;;;;;;;14.17;12.33;;;20.70;99.90;;;;;;5088530;28;20503;-57
2023/03/18 11:37:48;;;;;;;5.60;3.50;;;21.00;99.90;;;;;;5073321;28;20531;-57
2023/03/18 11:40:24;;;;;;;4.07;3.77;;;20.90;99.90;;;;;;5073577;28;20457;-58
2023/03/18 11:42:55;;;;;;;5.13;3.93;;;20.90;99.90;;;;;;5073588;28;20461;-58
2023/03/18 11:45:41;;;;;;;5.00;3.43;;;20.60;99.90;;;;;;5070449;28;20465;-60
2023/03/18 11:48:16;;;;;;;4.50;3.13;;;20.40;99.90;;;;;;5068663;28;20617;-59
2023/03/18 11:50:57;;;;;;;4.43;3.73;;;20.60;99.90;;;;;;5071357;28;20461;-60
2023/03/18 11:53:33;;;;;;;4.97;3.50;;;20.50;99.90;;;;;;5065419;28;20793;-60
2023/03/18 11:56:09;;;;;;;3.83;3.40;;;20.60;99.90;;;;;;5070356;28;20464;-60
2023/03/18 11:58:50;;;;;;;3.30;2.80;;;20.70;99.90;;;;;;5072122;28;20472;-60
2023/03/18 12:01:25;;;;;;;4.80;3.60;;;20.10;99.90;;;;;;5073839;28;20466;-59
2023/03/18 12:04:28;;;;;;;5.33;3.20;;;20.50;99.90;;;;;;5071778;28;20465;-60
2023/03/18 12:07:12;;;;;;;5.20;2.83;;;20.40;99.90;;;;;;5067671;28;20491;-58
2023/03/18 12:09:48;;;;;;;4.03;3.07;;;19.50;99.90;;;;;;5070400;28;20942;-60
2023/03/18 12:12:31;;;;;;;4.77;3.80;;;19.00;99.90;;;;;;5068258;28;20784;-60
2023/03/18 12:15:04;;;;;;;4.90;3.90;;;18.90;99.90;;;;;;5070415;28;20473;-60
2023/03/18 12:17:43;;;;;;;4.23;3.87;;;18.80;99.90;;;;;;5075590;28;20461;-56
2023/03/18 12:20:31;;;;;;;4.37;3.93;;;18.80;99.90;;;;;;5077955;28;20458;-55
2023/03/18 12:23:19;;;;;;;3.87;3.50;;;19.30;99.90;;;;;;5068372;28;20457;-60
2023/03/18 12:26:03;;;;;;;5.10;4.10;;;19.50;99.90;;;;;;5070030;28;20457;-59
2023/03/18 12:28:45;;;;;;;3.80;3.40;;;19.60;99.90;;;;;;5069856;28;20529;-59
2023/03/18 12:31:40;;;;;;;3.60;2.70;;;19.60;99.90;;;;;;5071395;28;20464;-60
2023/03/18 12:34:21;;;;;;;4.30;3.20;;;19.60;99.90;;;;;;5069524;28;20493;-59
2023/03/18 12:37:00;;;;;;;5.60;3.20;;;19.70;99.90;;;;;;5071237;28;20454;-59
2023/03/18 12:39:52;;;;;;;5.47;3.50;;;19.50;99.90;;;;;;5066509;28;20454;-59
2023/03/18 12:42:32;;;;;;;4.40;3.40;;;19.10;99.90;;;;;;5056923;28;20866;-57
2023/03/18 12:45:01;;;;;;;5.20;3.77;;;19.10;99.90;;;;;;5058618;28;20741;-60
2023/03/18 12:47:34;;;;;;;5.27;4.77;;;18.70;99.90;;;;;;5060793;28;20503;-57
2023/03/18 12:50:07;;;;;;;5.60;4.20;;;18.30;99.90;;;;;;5058351;28;20490;-60
2023/03/18 12:52:39;;;;;;;4.03;3.23;;;18.00;99.90;;;;;;5059546;28;20437;-58
2023/03/18 12:55:14;;;;;;;6.07;5.10;;;18.00;99.90;;;;;;5055767;28;20502;-55
2023/03/18 12:57:46;;;;;;;5.50;4.40;;;18.30;99.90;;;;;;5058214;28;20504;-56
2023/03/18 13:00:24;;;;;;;6.40;4.40;;;18.80;99.90;;;;;;5056696;28;20730;-57
2023/03/18 13:03:02;;;;;;;4.70;4.30;;;19.30;99.90;;;;;;5057091;28;20462;-61
2023/03/18 13:05:46;;;;;;;3.60;3.30;;;19.60;99.90;;;;;;5056857;28;20472;-59